Statsraad Lehmkuhl — LDRG — position and weather

sailwx.info

Track history (hours):
 
Tides and Currents Weather Stations Pressure Air Temp Water Temp Dewpoint Dewpoint Depression Visibility Wind Speed Wind Dir Waves Ship Positions

Statsraad Lehmkuhl (Norway)

Ship's website: http://www.lehmkuhl.no/eng/index.cfm

Last reported at 2019-Apr-26 03:30 UTC. Time now 2019-Apr-26 03:44 UTC.
Position N 60°24' E 005°19'.

Length 85 m; draft 5.2 m.

Type: Sailing vessel. MMSI: 258113000.

Date/timePositionNaut miles runAvg speedWind from/ knotsBaromVisibWave heightAir tempDewpointWater temp
2019-Apr-26 03:30N 60°24' E 005°19'0 0.0
2019-Apr-26 03:00N 60°24' E 005°19'0 0.0
2019-Apr-26 02:30N 60°24' E 005°19'0 0.0
2019-Apr-26 02:00N 60°24' E 005°19'0 0.0
2019-Apr-26 01:30N 60°24' E 005°19'0 0.0
2019-Apr-26 01:00N 60°24' E 005°19'0 0.0
2019-Apr-26 00:31N 60°24' E 005°19'0 0.0
2019-Apr-26 00:00N 60°24' E 005°19'0 0.0
2019-Apr-25 23:31N 60°24' E 005°19'0 0.0
2019-Apr-25 23:00N 60°24' E 005°19'0 0.0
2019-Apr-25 22:30N 60°24' E 005°19'0 0.0
2019-Apr-25 22:01N 60°24' E 005°19'0 0.0
2019-Apr-25 21:30N 60°24' E 005°19'0 0.0
2019-Apr-25 21:01N 60°24' E 005°19'0 0.0
2019-Apr-25 20:31N 60°24' E 005°19'0 0.6
2019-Apr-25 20:01N 60°24' E 005°19'3 5.1
2019-Apr-25 19:30N 60°24' E 005°13'3 5.3
2019-Apr-25 19:00N 60°24' E 005°08'2 3.7
2019-Apr-25 18:30N 60°26' E 005°08'3 5.8
2019-Apr-25 18:00N 60°23' E 005°11'3 6.4
2019-Apr-25 17:30N 60°24' E 005°17'1 2.6
2019-Apr-25 17:00N 60°24' E 005°19'0 0.0
2019-Apr-25 16:28N 60°24' E 005°19'0 0.0
2019-Apr-25 15:58N 60°24' E 005°19'0 0.0
2019-Apr-25 15:28N 60°24' E 005°19'0 0.0
2019-Apr-25 14:59N 60°24' E 005°19'0 0.0
2019-Apr-25 14:29N 60°24' E 005°19'0 0.0
2019-Apr-25 13:59N 60°24' E 005°19'0 0.0
2019-Apr-25 13:27N 60°24' E 005°19'0 0.0
2019-Apr-25 13:00N 60°24' E 005°19'0 0.0
2019-Apr-25 12:30N 60°24' E 005°19'0 0.0
2019-Apr-25 11:58N 60°24' E 005°19'0 0.0
2019-Apr-25 11:28N 60°24' E 005°19'0 0.0
2019-Apr-25 10:58N 60°24' E 005°19'0 0.0
2019-Apr-25 10:29N 60°24' E 005°19'0 0.0
2019-Apr-25 09:59N 60°24' E 005°19'0 0.0
2019-Apr-25 09:29N 60°24' E 005°19'0 0.0
2019-Apr-25 09:00N 60°24' E 005°19'0 0.0
2019-Apr-25 08:30N 60°24' E 005°19'0 0.0
2019-Apr-25 08:00N 60°24' E 005°19'0 0.0
2019-Apr-25 07:28N 60°24' E 005°19'0 0.0
2019-Apr-25 06:58N 60°24' E 005°19'0 0.0
2019-Apr-25 06:28N 60°24' E 005°19'0 0.0
2019-Apr-25 05:59N 60°24' E 005°19'0 0.0
2019-Apr-25 05:29N 60°24' E 005°19'0 0.0
2019-Apr-25 04:59N 60°24' E 005°19'0 0.0
2019-Apr-25 04:30N 60°24' E 005°19'0 0.0
2019-Apr-25 04:00N 60°24' E 005°19'0 0.0
2019-Apr-25 03:30N 60°24' E 005°19'0 0.0
2019-Apr-25 02:58N 60°24' E 005°19'0 0.0
2019-Apr-25 02:28N 60°24' E 005°19'0 0.0
2019-Apr-25 01:58N 60°24' E 005°19'0 0.0
2019-Apr-25 01:29N 60°24' E 005°19'0 0.0
2019-Apr-25 00:59N 60°24' E 005°19'0 0.0
2019-Apr-25 00:29N 60°24' E 005°19'0 0.0
2019-Apr-25 00:00N 60°24' E 005°19'0 0.0
2019-Apr-24 23:30N 60°24' E 005°19'0 0.0
2019-Apr-24 23:00N 60°24' E 005°19'0 0.0
2019-Apr-24 22:28N 60°24' E 005°19'0 0.0
2019-Apr-24 21:58N 60°24' E 005°19'0 0.0
2019-Apr-24 21:28N 60°24' E 005°19'0 0.0
2019-Apr-24 20:59N 60°24' E 005°19'0 0.0
2019-Apr-24 20:29N 60°24' E 005°19'0 0.0
2019-Apr-24 19:59N 60°24' E 005°19'0 0.0
2019-Apr-24 19:30N 60°24' E 005°19'0 0.0
2019-Apr-24 19:00N 60°24' E 005°19'0 0.0
2019-Apr-24 18:30N 60°24' E 005°19'0 0.0
2019-Apr-24 17:58N 60°24' E 005°19'0 0.0
2019-Apr-24 17:28N 60°24' E 005°19'0 0.0
2019-Apr-24 16:58N 60°24' E 005°19'0 0.0
2019-Apr-24 16:29N 60°24' E 005°19'0 0.0
2019-Apr-24 15:59N 60°24' E 005°19'0 0.0
2019-Apr-24 15:29N 60°24' E 005°19'0 0.0
2019-Apr-24 15:00N 60°24' E 005°19'0 0.0
2019-Apr-24 14:30N 60°24' E 005°19'0 0.0
2019-Apr-24 14:00N 60°24' E 005°19'0 0.0
2019-Apr-24 13:28N 60°24' E 005°19'0 0.0
2019-Apr-24 12:58N 60°24' E 005°19'0 0.0
2019-Apr-24 12:28N 60°24' E 005°19'0 0.0
2019-Apr-24 11:59N 60°24' E 005°19'0 0.0
2019-Apr-24 11:29N 60°24' E 005°19'0 0.0
2019-Apr-24 10:59N 60°24' E 005°19'0 0.0
2019-Apr-24 10:30N 60°24' E 005°19'0 0.0
2019-Apr-24 10:00N 60°24' E 005°19'0 0.0
2019-Apr-24 09:30N 60°24' E 005°19'0 0.0
2019-Apr-24 08:58N 60°24' E 005°19'0 0.0
2019-Apr-24 08:28N 60°24' E 005°19'0 0.0
2019-Apr-24 07:58N 60°24' E 005°19'0 0.0
2019-Apr-24 07:29N 60°24' E 005°19'0 0.0
2019-Apr-24 06:59N 60°24' E 005°19'0 0.0
2019-Apr-24 06:29N 60°24' E 005°19'0 0.0
2019-Apr-24 06:00N 60°24' E 005°19'0 0.0
2019-Apr-24 05:30N 60°24' E 005°19'0 0.0
2019-Apr-24 05:00N 60°24' E 005°19'0 0.0
2019-Apr-24 04:28N 60°24' E 005°19'0 0.0
2019-Apr-24 03:58N 60°24' E 005°19'0 0.0
2019-Apr-24 03:28N 60°24' E 005°19'0 0.0
2019-Apr-24 02:59N 60°24' E 005°19'0 0.0
2019-Apr-24 02:29N 60°24' E 005°19'0 0.0
2019-Apr-24 01:59N 60°24' E 005°19'0 0.0
2019-Apr-24 01:30N 60°24' E 005°19'0 0.0
2019-Apr-24 01:00N 60°24' E 005°19'0 0.0
2019-Apr-24 00:30N 60°24' E 005°19'0 0.0
2019-Apr-23 23:58N 60°24' E 005°19'0 0.0
2019-Apr-23 23:28N 60°24' E 005°19'0 0.0
2019-Apr-23 22:58N 60°24' E 005°19'0 0.0
2019-Apr-23 22:29N 60°24' E 005°19'0 0.0
2019-Apr-23 21:59N 60°24' E 005°19'0 0.0
2019-Apr-23 21:29N 60°24' E 005°19'0 0.0
2019-Apr-23 21:00N 60°24' E 005°19'0 0.0
2019-Apr-23 20:30N 60°24' E 005°19'0 0.0
2019-Apr-23 20:00N 60°24' E 005°19'0 0.0
2019-Apr-23 19:28N 60°24' E 005°19'0 0.0
2019-Apr-23 18:58N 60°24' E 005°19'0 0.0
2019-Apr-23 18:28N 60°24' E 005°19'0 0.0
2019-Apr-23 17:59N 60°24' E 005°19'0 0.0
2019-Apr-23 17:29N 60°24' E 005°19'0 0.0
2019-Apr-23 16:59N 60°24' E 005°19'0 0.0
2019-Apr-23 16:30N 60°24' E 005°19'0 0.0
2019-Apr-23 16:00N 60°24' E 005°19'0 0.0
2019-Apr-23 15:30N 60°24' E 005°19'0 0.0
2019-Apr-23 14:58N 60°24' E 005°19'0 0.0
2019-Apr-23 14:28N 60°24' E 005°19'0 0.0
2019-Apr-23 13:58N 60°24' E 005°19'0 0.0
2019-Apr-23 13:29N 60°24' E 005°19'0 0.0
2019-Apr-23 12:59N 60°24' E 005°19'0 0.0
2019-Apr-23 12:29N 60°24' E 005°19'0 0.0
2019-Apr-23 12:00N 60°24' E 005°19'0 0.0
2019-Apr-23 11:30N 60°24' E 005°19'0 0.0
2019-Apr-23 11:00N 60°24' E 005°19'0 0.0
2019-Apr-23 10:28N 60°24' E 005°19'0 0.0
2019-Apr-23 09:58N 60°24' E 005°19'0 0.0
2019-Apr-23 09:28N 60°24' E 005°19'0 0.0
2019-Apr-23 08:59N 60°24' E 005°19'0 0.0
2019-Apr-23 08:29N 60°24' E 005°19'0 0.0
2019-Apr-23 07:59N 60°24' E 005°19'0 0.0
2019-Apr-23 07:30N 60°24' E 005°19'0 0.0
2019-Apr-23 07:00N 60°24' E 005°19'0 0.0
2019-Apr-23 06:30N 60°24' E 005°19'0 0.0
2019-Apr-23 05:58N 60°24' E 005°19'0 0.0
2019-Apr-23 05:28N 60°24' E 005°19'0 0.0
2019-Apr-23 04:58N 60°24' E 005°19'0 0.0
2019-Apr-23 04:29N 60°24' E 005°19'0 0.0
2019-Apr-23 03:59N 60°24' E 005°19'0 0.0
2019-Apr-23 03:29N 60°24' E 005°19'0 0.0
2019-Apr-23 03:00N 60°24' E 005°19'0 0.0
2019-Apr-23 02:30N 60°24' E 005°19'0 0.0
2019-Apr-23 02:00N 60°24' E 005°19'0 0.0
2019-Apr-23 01:28N 60°24' E 005°19'0 0.0
2019-Apr-23 00:58N 60°24' E 005°19'0 0.0
2019-Apr-23 00:29N 60°24' E 005°19'0 0.0
2019-Apr-22 23:59N 60°24' E 005°19'0 0.0
2019-Apr-22 23:29N 60°24' E 005°19'0 0.0
2019-Apr-22 22:59N 60°24' E 005°19'0 0.0
2019-Apr-22 22:30N 60°24' E 005°19'0 0.0
2019-Apr-22 22:00N 60°24' E 005°19'0 0.0
2019-Apr-22 21:30N 60°24' E 005°19'0 0.0
2019-Apr-22 20:58N 60°24' E 005°19'0 0.0
2019-Apr-22 20:28N 60°24' E 005°19'0 0.0
2019-Apr-22 19:59N 60°24' E 005°19'0 0.0
2019-Apr-22 19:29N 60°24' E 005°19'0 0.0
2019-Apr-22 18:59N 60°24' E 005°19'0 0.0
2019-Apr-22 18:29N 60°24' E 005°19'0 0.0
2019-Apr-22 18:00N 60°24' E 005°19'0 0.0
2019-Apr-22 17:30N 60°24' E 005°19'0 0.0
2019-Apr-22 17:01N 60°24' E 005°19'0 0.0
2019-Apr-22 16:28N 60°24' E 005°19'0 0.0
2019-Apr-22 15:58N 60°24' E 005°19'0 0.0
2019-Apr-22 15:29N 60°24' E 005°19'0 0.0
2019-Apr-22 14:59N 60°24' E 005°19'0 0.0
2019-Apr-22 14:29N 60°24' E 005°19'0 0.0
2019-Apr-22 14:00N 60°24' E 005°19'0 0.0
2019-Apr-22 13:30N 60°24' E 005°19'0 0.0
2019-Apr-22 13:00N 60°24' E 005°19'0 0.0
2019-Apr-22 12:30N 60°24' E 005°19'0 0.0
2019-Apr-22 11:58N 60°24' E 005°19'0 0.0
2019-Apr-22 11:28N 60°24' E 005°19'0 0.0
2019-Apr-22 10:59N 60°24' E 005°19'0 0.0
2019-Apr-22 10:29N 60°24' E 005°19'0 0.0
2019-Apr-22 09:59N 60°24' E 005°19'0 0.0
2019-Apr-22 09:30N 60°24' E 005°19'0 0.0
2019-Apr-22 09:00N 60°24' E 005°19'0 0.0
2019-Apr-22 08:30N 60°24' E 005°19'0 0.0
2019-Apr-22 08:01N 60°24' E 005°19'0 0.0
2019-Apr-22 07:28N 60°24' E 005°19'0 0.0
2019-Apr-22 06:58N 60°24' E 005°19'0 0.0
2019-Apr-22 06:29N 60°24' E 005°19'0 0.0
2019-Apr-22 05:59N 60°24' E 005°19'0 0.0
2019-Apr-22 05:29N 60°24' E 005°19'0 0.0
2019-Apr-22 04:57N 60°24' E 005°19'0 0.0
2019-Apr-22 04:30N 60°24' E 005°19'0 0.0
2019-Apr-22 04:00N 60°24' E 005°19'0 0.0
2019-Apr-22 03:31N 60°24' E 005°19'0 0.0
2019-Apr-22 02:58N 60°24' E 005°19'0 0.0
2019-Apr-22 02:28N 60°24' E 005°19'0 0.0
2019-Apr-22 01:59N 60°24' E 005°19'0 0.0
2019-Apr-22 01:29N 60°24' E 005°19'0 0.0
2019-Apr-22 00:59N 60°24' E 005°19'0 0.0
2019-Apr-22 00:27N 60°24' E 005°19'0 0.0
2019-Apr-22 00:00N 60°24' E 005°19'0 0.0
2019-Apr-21 23:30N 60°24' E 005°19'0 0.0
2019-Apr-21 22:58N 60°24' E 005°19'0 0.0
2019-Apr-21 22:28N 60°24' E 005°19'0 0.0
2019-Apr-21 21:58N 60°24' E 005°19'0 0.0
2019-Apr-21 21:29N 60°24' E 005°19'0 0.0
2019-Apr-21 20:59N 60°24' E 005°19'0 0.0
2019-Apr-21 20:29N 60°24' E 005°19'0 0.0
2019-Apr-21 20:00N 60°24' E 005°19'0 0.0
2019-Apr-21 19:30N 60°24' E 005°19'0 0.0
2019-Apr-21 19:00N 60°24' E 005°19'0 0.0
2019-Apr-21 18:28N 60°24' E 005°19'0 0.0
2019-Apr-21 17:58N 60°24' E 005°19'0 0.0
2019-Apr-21 17:28N 60°24' E 005°19'0 0.0
2019-Apr-21 16:59N 60°24' E 005°19'0 0.0
2019-Apr-21 16:29N 60°24' E 005°19'0 0.0
2019-Apr-21 15:59N 60°24' E 005°19'0 0.0
2019-Apr-21 15:30N 60°24' E 005°19'0 0.0
2019-Apr-21 15:00N 60°24' E 005°19'0 0.0
2019-Apr-21 14:30N 60°24' E 005°19'0 0.0
2019-Apr-21 13:58N 60°24' E 005°19'0 0.0
2019-Apr-21 13:28N 60°24' E 005°19'0 0.0
2019-Apr-21 12:58N 60°24' E 005°19'0 0.0
2019-Apr-21 12:29N 60°24' E 005°19'0 0.0
2019-Apr-21 11:59N 60°24' E 005°19'0 0.0
2019-Apr-21 11:29N 60°24' E 005°19'0 0.0
2019-Apr-21 11:00N 60°24' E 005°19'0 0.0
2019-Apr-21 10:30N 60°24' E 005°19'0 0.0
2019-Apr-21 10:00N 60°24' E 005°19'0 0.0
2019-Apr-21 09:28N 60°24' E 005°19'0 0.0
2019-Apr-21 08:58N 60°24' E 005°19'0 0.0
2019-Apr-21 08:28N 60°24' E 005°19'0 0.0
2019-Apr-21 07:59N 60°24' E 005°19'0 0.0
2019-Apr-21 07:29N 60°24' E 005°19'0 0.0
2019-Apr-21 06:59N 60°24' E 005°19'0 0.0
2019-Apr-21 06:30N 60°24' E 005°19'0 0.0
2019-Apr-21 06:00N 60°24' E 005°19'0 0.0
2019-Apr-21 05:30N 60°24' E 005°19'0 0.0
2019-Apr-21 04:58N 60°24' E 005°19'0 0.0
2019-Apr-21 04:28N 60°24' E 005°19'0 0.0
2019-Apr-21 03:58N 60°24' E 005°19'0 0.0
2019-Apr-21 03:29N 60°24' E 005°19'0 0.0
2019-Apr-21 02:59N 60°24' E 005°19'0 0.0
2019-Apr-21 02:29N 60°24' E 005°19'0 0.0
2019-Apr-21 02:00N 60°24' E 005°19'0 0.0
2019-Apr-21 01:30N 60°24' E 005°19'0 0.0
2019-Apr-21 01:00N 60°24' E 005°19'0 0.0
2019-Apr-21 00:28N 60°24' E 005°19'0 0.0
2019-Apr-20 23:58N 60°24' E 005°19'0 0.0
2019-Apr-20 23:28N 60°24' E 005°19'0 0.0
2019-Apr-20 22:59N 60°24' E 005°19'0 0.0
2019-Apr-20 22:29N 60°24' E 005°19'0 0.0
2019-Apr-20 21:59N 60°24' E 005°19'0 0.0
2019-Apr-20 21:30N 60°24' E 005°19'0 0.0
2019-Apr-20 21:00N 60°24' E 005°19'0 0.0
2019-Apr-20 20:30N 60°24' E 005°19'0 0.0
2019-Apr-20 19:58N 60°24' E 005°19'0 0.0
2019-Apr-20 19:28N 60°24' E 005°19'0 0.0
2019-Apr-20 18:58N 60°24' E 005°19'0 0.0
2019-Apr-20 18:29N 60°24' E 005°19'0 0.0
2019-Apr-20 17:59N 60°24' E 005°19'0 0.0
2019-Apr-20 17:29N 60°24' E 005°19'0 0.0
2019-Apr-20 17:00N 60°24' E 005°19'0 0.0
2019-Apr-20 16:30N 60°24' E 005°19'0 0.0
2019-Apr-20 16:00N 60°24' E 005°19'0 0.0
2019-Apr-20 15:28N 60°24' E 005°19'0 0.0
2019-Apr-20 14:58N 60°24' E 005°19'0 0.0
2019-Apr-20 14:28N 60°24' E 005°19'0 0.0
2019-Apr-20 13:59N 60°24' E 005°19'0 0.0
2019-Apr-20 13:29N 60°24' E 005°19'0 0.0
2019-Apr-20 12:59N 60°24' E 005°19'0 0.0
2019-Apr-20 12:30N 60°24' E 005°19'0 0.0
2019-Apr-20 12:00N 60°24' E 005°19'0 0.0
2019-Apr-20 11:30N 60°24' E 005°19'0 0.0
2019-Apr-20 10:58N 60°24' E 005°19'0 0.0
2019-Apr-20 10:28N 60°24' E 005°19'0 0.0
2019-Apr-20 09:58N 60°24' E 005°19'0 0.0
2019-Apr-20 09:29N 60°24' E 005°19'0 0.0
2019-Apr-20 08:59N 60°24' E 005°19'0 0.0
2019-Apr-20 08:29N 60°24' E 005°19'0 0.0
2019-Apr-20 08:00N 60°24' E 005°19'0 0.0
2019-Apr-20 07:30N 60°24' E 005°19'0 0.0
2019-Apr-20 07:00N 60°24' E 005°19'0 0.0
2019-Apr-20 06:28N 60°24' E 005°19'0 0.0
2019-Apr-20 05:58N 60°24' E 005°19'0 0.0
2019-Apr-20 05:28N 60°24' E 005°19'0 0.0
2019-Apr-20 04:59N 60°24' E 005°19'0 0.0
2019-Apr-20 04:29N 60°24' E 005°19'0 0.0
2019-Apr-20 03:59N 60°24' E 005°19'0 0.0
2019-Apr-20 03:30N 60°24' E 005°19'0 0.0
2019-Apr-20 03:00N 60°24' E 005°19'0 0.0
2019-Apr-20 02:31N 60°24' E 005°19'0 0.0
2019-Apr-20 01:58N 60°24' E 005°19'0 0.0
2019-Apr-20 01:28N 60°24' E 005°19'0 0.0
2019-Apr-20 00:59N 60°24' E 005°19'0 0.0
2019-Apr-20 00:29N 60°24' E 005°19'0 0.0
2019-Apr-19 23:59N 60°24' E 005°19'0 0.0
2019-Apr-19 23:29N 60°24' E 005°19'0 0.0
2019-Apr-19 23:00N 60°24' E 005°19'0 0.0
2019-Apr-19 22:27N 60°24' E 005°19'0 0.0
2019-Apr-19 22:00N 60°24' E 005°19'0 0.0
2019-Apr-19 21:28N 60°24' E 005°19'0 0.0
2019-Apr-19 20:58N 60°24' E 005°19'0 0.0
2019-Apr-19 20:28N 60°24' E 005°19'0 0.0
2019-Apr-19 19:59N 60°24' E 005°19'0 0.0
2019-Apr-19 19:29N 60°24' E 005°19'0 0.0
2019-Apr-19 18:59N 60°24' E 005°19'0 0.0
2019-Apr-19 18:30N 60°24' E 005°19'0 0.0
2019-Apr-19 18:00N 60°24' E 005°19'0 0.0
2019-Apr-19 17:30N 60°24' E 005°19'0 0.0
2019-Apr-19 16:58N 60°24' E 005°19'0 0.0
2019-Apr-19 16:28N 60°24' E 005°19'0 0.0
2019-Apr-19 15:59N 60°24' E 005°19'0 0.0
2019-Apr-19 15:29N 60°24' E 005°19'0 0.0
2019-Apr-19 14:59N 60°24' E 005°19'0 0.0
2019-Apr-19 14:30N 60°24' E 005°19'0 0.0
2019-Apr-19 14:00N 60°24' E 005°19'0 0.0
2019-Apr-19 13:30N 60°24' E 005°19'0 0.0
2019-Apr-19 13:01N 60°24' E 005°19'0 0.0
2019-Apr-19 12:28N 60°24' E 005°19'0 0.0
2019-Apr-19 11:58N 60°24' E 005°19'0 0.0
2019-Apr-19 11:29N 60°24' E 005°19'0 0.0
2019-Apr-19 10:59N 60°24' E 005°19'0 0.0
2019-Apr-19 10:29N 60°24' E 005°19'0 0.0
2019-Apr-19 10:00N 60°24' E 005°19'0 0.0
2019-Apr-19 09:30N 60°24' E 005°19'0 0.0
2019-Apr-19 09:00N 60°24' E 005°19'0 0.0
2019-Apr-19 08:31N 60°24' E 005°19'0 0.0
2019-Apr-19 07:58N 60°24' E 005°19'0 0.0
2019-Apr-19 07:28N 60°24' E 005°19'0 0.0
2019-Apr-19 06:59N 60°24' E 005°19'0 0.0
2019-Apr-19 06:29N 60°24' E 005°19'0 0.0
2019-Apr-19 05:59N 60°24' E 005°19'0 0.0
2019-Apr-19 05:27N 60°24' E 005°19'0 0.0
2019-Apr-19 05:00N 60°24' E 005°19'0 0.0
2019-Apr-19 04:30N 60°24' E 005°19'0 0.0
2019-Apr-19 04:01N 60°24' E 005°19'0 0.0
2019-Apr-19 03:28N 60°24' E 005°19'0 0.0
2019-Apr-19 02:58N 60°24' E 005°19'0 0.0
2019-Apr-19 02:29N 60°24' E 005°19'0 0.0
2019-Apr-19 01:59N 60°24' E 005°19'0 0.0
2019-Apr-19 01:29N 60°24' E 005°19'0 0.0
2019-Apr-19 01:00N 60°24' E 005°19'0 0.0
2019-Apr-19 00:30N 60°24' E 005°19'0 0.0
2019-Apr-19 00:00N 60°24' E 005°19'0 0.0
2019-Apr-18 23:28N 60°24' E 005°19'0 0.0
2019-Apr-18 22:58N 60°24' E 005°19'0 0.0
2019-Apr-18 22:28N 60°24' E 005°19'0 0.0
2019-Apr-18 21:59N 60°24' E 005°19'0 0.0
2019-Apr-18 21:29N 60°24' E 005°19'0 0.0
2019-Apr-18 20:59N 60°24' E 005°19'0 0.0
2019-Apr-18 20:30N 60°24' E 005°19'0 0.0
2019-Apr-18 20:00N 60°24' E 005°19'0 0.0
2019-Apr-18 19:30N 60°24' E 005°19'0 0.0
2019-Apr-18 18:58N 60°24' E 005°19'0 0.0
2019-Apr-18 18:28N 60°24' E 005°19'0 0.0
2019-Apr-18 17:58N 60°24' E 005°19'0 0.0
2019-Apr-18 17:29N 60°24' E 005°19'0 0.0
2019-Apr-18 16:59N 60°24' E 005°19'0 0.0
2019-Apr-18 16:29N 60°24' E 005°19'0 0.0
2019-Apr-18 15:57N 60°24' E 005°19'0 0.0
2019-Apr-18 15:30N 60°24' E 005°19'0 0.0
2019-Apr-18 15:00N 60°24' E 005°19'0 0.0
2019-Apr-18 14:28N 60°24' E 005°19'0 0.0
2019-Apr-18 13:58N 60°24' E 005°19'0 0.0
2019-Apr-18 13:28N 60°24' E 005°19'0 0.0
2019-Apr-18 12:59N 60°24' E 005°19'0 0.0
2019-Apr-18 12:29N 60°24' E 005°19'0 0.0
2019-Apr-18 11:59N 60°24' E 005°19'0 0.0
2019-Apr-18 11:30N 60°24' E 005°19'0 0.0
2019-Apr-18 11:00N 60°24' E 005°19'0 0.0
2019-Apr-18 10:30N 60°24' E 005°19'0 0.0
2019-Apr-18 09:58N 60°24' E 005°19'0 0.0
2019-Apr-18 09:28N 60°24' E 005°19'0 0.0
2019-Apr-18 08:58N 60°24' E 005°19'0 0.0
2019-Apr-18 08:29N 60°24' E 005°19'0 0.0
2019-Apr-18 07:59N 60°24' E 005°19'0 0.0
2019-Apr-18 07:29N 60°24' E 005°19'0 0.0
2019-Apr-18 07:00N 60°24' E 005°19'0 0.0
2019-Apr-18 06:30N 60°24' E 005°19'0 0.0
2019-Apr-18 06:00N 60°24' E 005°19'0 0.0
2019-Apr-18 05:28N 60°24' E 005°19'0 0.0
2019-Apr-18 04:58N 60°24' E 005°19'0 0.0
2019-Apr-18 04:28N 60°24' E 005°19'0 0.0
2019-Apr-18 03:59N 60°24' E 005°19'0 0.0
2019-Apr-18 03:29N 60°24' E 005°19'0 0.0
2019-Apr-18 02:59N 60°24' E 005°19'0 0.0
2019-Apr-18 02:30N 60°24' E 005°19'0 0.0
2019-Apr-18 02:00N 60°24' E 005°19'0 0.0
2019-Apr-18 01:30N 60°24' E 005°19'0 0.0
2019-Apr-18 00:58N 60°24' E 005°19'0 0.0
2019-Apr-18 00:28N 60°24' E 005°19'0 0.0
2019-Apr-17 23:58N 60°24' E 005°19'0 0.0
2019-Apr-17 23:29N 60°24' E 005°19'0 0.0
2019-Apr-17 22:59N 60°24' E 005°19'0 0.0
2019-Apr-17 22:29N 60°24' E 005°19'0 0.0
2019-Apr-17 22:00N 60°24' E 005°19'0 0.0
2019-Apr-17 21:30N 60°24' E 005°19'0 0.0
2019-Apr-17 21:00N 60°24' E 005°19'0 0.0
2019-Apr-17 20:28N 60°24' E 005°19'0 0.0
2019-Apr-17 19:58N 60°24' E 005°19'0 0.0
2019-Apr-17 19:28N 60°24' E 005°19'0 0.0
2019-Apr-17 18:59N 60°24' E 005°19'0 0.0
2019-Apr-17 18:29N 60°24' E 005°19'0 0.0
2019-Apr-17 17:59N 60°24' E 005°19'0 0.0
2019-Apr-17 17:30N 60°24' E 005°19'0 0.0
2019-Apr-17 17:00N 60°24' E 005°19'0 0.0
2019-Apr-17 16:30N 60°24' E 005°19'0 0.0
2019-Apr-17 15:58N 60°24' E 005°19'0 0.0
2019-Apr-17 15:28N 60°24' E 005°19'0 0.0
2019-Apr-17 14:58N 60°24' E 005°19'0 0.0
2019-Apr-17 14:29N 60°24' E 005°19'0 0.0
2019-Apr-17 13:59N 60°24' E 005°19'0 0.0
2019-Apr-17 13:29N 60°24' E 005°19'0 0.0
2019-Apr-17 13:00N 60°24' E 005°19'0 0.0
2019-Apr-17 12:30N 60°24' E 005°19'0 0.0
2019-Apr-17 12:00N 60°24' E 005°19'0 0.0
2019-Apr-17 11:28N 60°24' E 005°19'0 0.0
2019-Apr-17 10:58N 60°24' E 005°19'0 0.0
2019-Apr-17 10:28N 60°24' E 005°19'0 0.0
2019-Apr-17 09:59N 60°24' E 005°19'0 0.0
2019-Apr-17 09:29N 60°24' E 005°19'0 0.0
2019-Apr-17 08:59N 60°24' E 005°19'0 0.0
2019-Apr-17 08:30N 60°24' E 005°19'0 0.0
2019-Apr-17 08:00N 60°24' E 005°19'0 0.0
2019-Apr-17 07:30N 60°24' E 005°19'0 0.0
2019-Apr-17 06:58N 60°24' E 005°19'0 0.0
2019-Apr-17 06:28N 60°24' E 005°19'0 0.0
2019-Apr-17 05:58N 60°24' E 005°19'0 0.0
2019-Apr-17 05:29N 60°24' E 005°19'0 0.0
2019-Apr-17 04:59N 60°24' E 005°19'0 0.0
2019-Apr-17 04:29N 60°24' E 005°19'0 0.0
2019-Apr-17 04:00N 60°24' E 005°19'0 0.0
2019-Apr-17 03:30N 60°24' E 005°19'0 0.0
2019-Apr-17 03:00N 60°24' E 005°19'0 0.0
2019-Apr-17 02:28N 60°24' E 005°19'0 0.0
2019-Apr-17 01:58N 60°24' E 005°19'0 0.0
2019-Apr-17 01:28N 60°24' E 005°19'0 0.0
2019-Apr-17 00:59N 60°24' E 005°19'0 0.0
2019-Apr-17 00:29N 60°24' E 005°19'0 0.0
2019-Apr-16 23:59N 60°24' E 005°19'0 0.0
2019-Apr-16 23:30N 60°24' E 005°19'0 0.0
2019-Apr-16 23:00N 60°24' E 005°19'0 0.0
2019-Apr-16 22:30N 60°24' E 005°19'0 0.0
2019-Apr-16 21:58N 60°24' E 005°19'0 0.0
2019-Apr-16 21:28N 60°24' E 005°19'0 0.0
2019-Apr-16 20:58N 60°24' E 005°19'0 0.0
2019-Apr-16 20:29N 60°24' E 005°19'0 0.0
2019-Apr-16 19:59N 60°24' E 005°19'0 0.0
2019-Apr-16 19:29N 60°24' E 005°19'0 0.0
2019-Apr-16 19:00N 60°24' E 005°19'0 0.0
2019-Apr-16 18:30N 60°24' E 005°19'0 0.0
2019-Apr-16 18:00N 60°24' E 005°19'0 0.0
2019-Apr-16 17:28N 60°24' E 005°19'0 0.0
2019-Apr-16 16:58N 60°24' E 005°19'0 0.0
2019-Apr-16 16:28N 60°24' E 005°19'0 0.0
2019-Apr-16 15:59N 60°24' E 005°19'0 0.0
2019-Apr-16 15:29N 60°24' E 005°19'0 0.0
2019-Apr-16 14:59N 60°24' E 005°19'0 0.0
2019-Apr-16 14:30N 60°24' E 005°19'0 0.0
2019-Apr-16 14:00N 60°24' E 005°19'0 0.0
2019-Apr-16 13:30N 60°24' E 005°19'0 0.0
2019-Apr-16 12:58N 60°24' E 005°19'0 0.0
2019-Apr-16 12:28N 60°24' E 005°19'0 0.0
2019-Apr-16 11:58N 60°24' E 005°19'0 0.0
2019-Apr-16 11:29N 60°24' E 005°19'0 0.0
2019-Apr-16 10:59N 60°24' E 005°19'0 0.0
2019-Apr-16 10:26N 60°24' E 005°19'0 0.0
2019-Apr-16 10:00N 60°24' E 005°19'0 0.0
2019-Apr-16 09:30N 60°24' E 005°19'0 0.0
2019-Apr-16 09:00N 60°24' E 005°19'0 0.0
2019-Apr-16 08:28N 60°24' E 005°19'0 0.0
2019-Apr-16 07:58N 60°24' E 005°19'0 0.0
2019-Apr-16 07:28N 60°24' E 005°19'0 0.0
2019-Apr-16 06:59N 60°24' E 005°19'0 0.0
2019-Apr-16 06:29N 60°24' E 005°19'0 0.0
2019-Apr-16 05:59N 60°24' E 005°19'0 0.0
2019-Apr-16 05:30N 60°24' E 005°19'0 0.0
2019-Apr-16 05:00N 60°24' E 005°19'0 0.0
2019-Apr-16 04:30N 60°24' E 005°19'0 0.0
2019-Apr-16 03:58N 60°24' E 005°19'  
Track history (hours):
 
Tides and Currents Weather Stations Pressure Air Temp Water Temp Dewpoint Dewpoint Depression Visibility Wind Speed Wind Dir Waves Ship Positions

Statsraad Lehmkuhl (Norway)

Ship's website: http://www.lehmkuhl.no/eng/index.cfm

Last reported at 2019-Apr-26 03:30 UTC. Time now 2019-Apr-26 03:44 UTC.
Position N 60°24' E 005°19'.

Length 85 m; draft 5.2 m.

Type: Sailing vessel. MMSI: 258113000.

Date/timePositionNaut miles runAvg speedWind from/ knotsBaromVisibWave heightAir tempDewpointWater temp
2019-Apr-26 03:30N 60°24' E 005°19'0 0.0
2019-Apr-26 03:00N 60°24' E 005°19'0 0.0
2019-Apr-26 02:30N 60°24' E 005°19'0 0.0
2019-Apr-26 02:00N 60°24' E 005°19'0 0.0
2019-Apr-26 01:30N 60°24' E 005°19'0 0.0
2019-Apr-26 01:00N 60°24' E 005°19'0 0.0
2019-Apr-26 00:31N 60°24' E 005°19'0 0.0
2019-Apr-26 00:00N 60°24' E 005°19'0 0.0
2019-Apr-25 23:31N 60°24' E 005°19'0 0.0
2019-Apr-25 23:00N 60°24' E 005°19'0 0.0
2019-Apr-25 22:30N 60°24' E 005°19'0 0.0
2019-Apr-25 22:01N 60°24' E 005°19'0 0.0
2019-Apr-25 21:30N 60°24' E 005°19'0 0.0
2019-Apr-25 21:01N 60°24' E 005°19'0 0.0
2019-Apr-25 20:31N 60°24' E 005°19'0 0.6
2019-Apr-25 20:01N 60°24' E 005°19'3 5.1
2019-Apr-25 19:30N 60°24' E 005°13'3 5.3
2019-Apr-25 19:00N 60°24' E 005°08'2 3.7
2019-Apr-25 18:30N 60°26' E 005°08'3 5.8
2019-Apr-25 18:00N 60°23' E 005°11'3 6.4
2019-Apr-25 17:30N 60°24' E 005°17'1 2.6
2019-Apr-25 17:00N 60°24' E 005°19'0 0.0
2019-Apr-25 16:28N 60°24' E 005°19'0 0.0
2019-Apr-25 15:58N 60°24' E 005°19'0 0.0
2019-Apr-25 15:28N 60°24' E 005°19'0 0.0
2019-Apr-25 14:59N 60°24' E 005°19'0 0.0
2019-Apr-25 14:29N 60°24' E 005°19'0 0.0
2019-Apr-25 13:59N 60°24' E 005°19'0 0.0
2019-Apr-25 13:27N 60°24' E 005°19'0 0.0
2019-Apr-25 13:00N 60°24' E 005°19'0 0.0
2019-Apr-25 12:30N 60°24' E 005°19'0 0.0
2019-Apr-25 11:58N 60°24' E 005°19'0 0.0
2019-Apr-25 11:28N 60°24' E 005°19'0 0.0
2019-Apr-25 10:58N 60°24' E 005°19'0 0.0
2019-Apr-25 10:29N 60°24' E 005°19'0 0.0
2019-Apr-25 09:59N 60°24' E 005°19'0 0.0
2019-Apr-25 09:29N 60°24' E 005°19'0 0.0
2019-Apr-25 09:00N 60°24' E 005°19'0 0.0
2019-Apr-25 08:30N 60°24' E 005°19'0 0.0
2019-Apr-25 08:00N 60°24' E 005°19'0 0.0
2019-Apr-25 07:28N 60°24' E 005°19'0 0.0
2019-Apr-25 06:58N 60°24' E 005°19'0 0.0
2019-Apr-25 06:28N 60°24' E 005°19'0 0.0
2019-Apr-25 05:59N 60°24' E 005°19'0 0.0
2019-Apr-25 05:29N 60°24' E 005°19'0 0.0
2019-Apr-25 04:59N 60°24' E 005°19'0 0.0
2019-Apr-25 04:30N 60°24' E 005°19'0 0.0
2019-Apr-25 04:00N 60°24' E 005°19'0 0.0
2019-Apr-25 03:30N 60°24' E 005°19'0 0.0
2019-Apr-25 02:58N 60°24' E 005°19'0 0.0
2019-Apr-25 02:28N 60°24' E 005°19'0 0.0
2019-Apr-25 01:58N 60°24' E 005°19'0 0.0
2019-Apr-25 01:29N 60°24' E 005°19'0 0.0
2019-Apr-25 00:59N 60°24' E 005°19'0 0.0
2019-Apr-25 00:29N 60°24' E 005°19'0 0.0
2019-Apr-25 00:00N 60°24' E 005°19'0 0.0
2019-Apr-24 23:30N 60°24' E 005°19'0 0.0
2019-Apr-24 23:00N 60°24' E 005°19'0 0.0
2019-Apr-24 22:28N 60°24' E 005°19'0 0.0
2019-Apr-24 21:58N 60°24' E 005°19'0 0.0
2019-Apr-24 21:28N 60°24' E 005°19'0 0.0
2019-Apr-24 20:59N 60°24' E 005°19'0 0.0
2019-Apr-24 20:29N 60°24' E 005°19'0 0.0
2019-Apr-24 19:59N 60°24' E 005°19'0 0.0
2019-Apr-24 19:30N 60°24' E 005°19'0 0.0
2019-Apr-24 19:00N 60°24' E 005°19'0 0.0
2019-Apr-24 18:30N 60°24' E 005°19'0 0.0
2019-Apr-24 17:58N 60°24' E 005°19'0 0.0
2019-Apr-24 17:28N 60°24' E 005°19'0 0.0
2019-Apr-24 16:58N 60°24' E 005°19'0 0.0
2019-Apr-24 16:29N 60°24' E 005°19'0 0.0
2019-Apr-24 15:59N 60°24' E 005°19'0 0.0
2019-Apr-24 15:29N 60°24' E 005°19'0 0.0
2019-Apr-24 15:00N 60°24' E 005°19'0 0.0
2019-Apr-24 14:30N 60°24' E 005°19'0 0.0
2019-Apr-24 14:00N 60°24' E 005°19'0 0.0
2019-Apr-24 13:28N 60°24' E 005°19'0 0.0
2019-Apr-24 12:58N 60°24' E 005°19'0 0.0
2019-Apr-24 12:28N 60°24' E 005°19'0 0.0
2019-Apr-24 11:59N 60°24' E 005°19'0 0.0
2019-Apr-24 11:29N 60°24' E 005°19'0 0.0
2019-Apr-24 10:59N 60°24' E 005°19'0 0.0
2019-Apr-24 10:30N 60°24' E 005°19'0 0.0
2019-Apr-24 10:00N 60°24' E 005°19'0 0.0
2019-Apr-24 09:30N 60°24' E 005°19'0 0.0
2019-Apr-24 08:58N 60°24' E 005°19'0 0.0
2019-Apr-24 08:28N 60°24' E 005°19'0 0.0
2019-Apr-24 07:58N 60°24' E 005°19'0 0.0
2019-Apr-24 07:29N 60°24' E 005°19'0 0.0
2019-Apr-24 06:59N 60°24' E 005°19'0 0.0
2019-Apr-24 06:29N 60°24' E 005°19'0 0.0
2019-Apr-24 06:00N 60°24' E 005°19'0 0.0
2019-Apr-24 05:30N 60°24' E 005°19'0 0.0
2019-Apr-24 05:00N 60°24' E 005°19'0 0.0
2019-Apr-24 04:28N 60°24' E 005°19'0 0.0
2019-Apr-24 03:58N 60°24' E 005°19'0 0.0
2019-Apr-24 03:28N 60°24' E 005°19'0 0.0
2019-Apr-24 02:59N 60°24' E 005°19'0 0.0
2019-Apr-24 02:29N 60°24' E 005°19'0 0.0
2019-Apr-24 01:59N 60°24' E 005°19'0 0.0
2019-Apr-24 01:30N 60°24' E 005°19'0 0.0
2019-Apr-24 01:00N 60°24' E 005°19'0 0.0
2019-Apr-24 00:30N 60°24' E 005°19'0 0.0
2019-Apr-23 23:58N 60°24' E 005°19'0 0.0
2019-Apr-23 23:28N 60°24' E 005°19'0 0.0
2019-Apr-23 22:58N 60°24' E 005°19'0 0.0
2019-Apr-23 22:29N 60°24' E 005°19'0 0.0
2019-Apr-23 21:59N 60°24' E 005°19'0 0.0
2019-Apr-23 21:29N 60°24' E 005°19'0 0.0
2019-Apr-23 21:00N 60°24' E 005°19'0 0.0
2019-Apr-23 20:30N 60°24' E 005°19'0 0.0
2019-Apr-23 20:00N 60°24' E 005°19'0 0.0
2019-Apr-23 19:28N 60°24' E 005°19'0 0.0
2019-Apr-23 18:58N 60°24' E 005°19'0 0.0
2019-Apr-23 18:28N 60°24' E 005°19'0 0.0
2019-Apr-23 17:59N 60°24' E 005°19'0 0.0
2019-Apr-23 17:29N 60°24' E 005°19'0 0.0
2019-Apr-23 16:59N 60°24' E 005°19'0 0.0
2019-Apr-23 16:30N 60°24' E 005°19'0 0.0
2019-Apr-23 16:00N 60°24' E 005°19'0 0.0
2019-Apr-23 15:30N 60°24' E 005°19'0 0.0
2019-Apr-23 14:58N 60°24' E 005°19'0 0.0
2019-Apr-23 14:28N 60°24' E 005°19'0 0.0
2019-Apr-23 13:58N 60°24' E 005°19'0 0.0
2019-Apr-23 13:29N 60°24' E 005°19'0 0.0
2019-Apr-23 12:59N 60°24' E 005°19'0 0.0
2019-Apr-23 12:29N 60°24' E 005°19'0 0.0
2019-Apr-23 12:00N 60°24' E 005°19'0 0.0
2019-Apr-23 11:30N 60°24' E 005°19'0 0.0
2019-Apr-23 11:00N 60°24' E 005°19'0 0.0
2019-Apr-23 10:28N 60°24' E 005°19'0 0.0
2019-Apr-23 09:58N 60°24' E 005°19'0 0.0
2019-Apr-23 09:28N 60°24' E 005°19'0 0.0
2019-Apr-23 08:59N 60°24' E 005°19'0 0.0
2019-Apr-23 08:29N 60°24' E 005°19'0 0.0
2019-Apr-23 07:59N 60°24' E 005°19'0 0.0
2019-Apr-23 07:30N 60°24' E 005°19'0 0.0
2019-Apr-23 07:00N 60°24' E 005°19'0 0.0
2019-Apr-23 06:30N 60°24' E 005°19'0 0.0
2019-Apr-23 05:58N 60°24' E 005°19'0 0.0
2019-Apr-23 05:28N 60°24' E 005°19'0 0.0
2019-Apr-23 04:58N 60°24' E 005°19'0 0.0
2019-Apr-23 04:29N 60°24' E 005°19'0 0.0
2019-Apr-23 03:59N 60°24' E 005°19'0 0.0
2019-Apr-23 03:29N 60°24' E 005°19'0 0.0
2019-Apr-23 03:00N 60°24' E 005°19'0 0.0
2019-Apr-23 02:30N 60°24' E 005°19'0 0.0
2019-Apr-23 02:00N 60°24' E 005°19'0 0.0
2019-Apr-23 01:28N 60°24' E 005°19'0 0.0
2019-Apr-23 00:58N 60°24' E 005°19'0 0.0
2019-Apr-23 00:29N 60°24' E 005°19'0 0.0
2019-Apr-22 23:59N 60°24' E 005°19'0 0.0
2019-Apr-22 23:29N 60°24' E 005°19'0 0.0
2019-Apr-22 22:59N 60°24' E 005°19'0 0.0
2019-Apr-22 22:30N 60°24' E 005°19'0 0.0
2019-Apr-22 22:00N 60°24' E 005°19'0 0.0
2019-Apr-22 21:30N 60°24' E 005°19'0 0.0
2019-Apr-22 20:58N 60°24' E 005°19'0 0.0
2019-Apr-22 20:28N 60°24' E 005°19'0 0.0
2019-Apr-22 19:59N 60°24' E 005°19'0 0.0
2019-Apr-22 19:29N 60°24' E 005°19'0 0.0
2019-Apr-22 18:59N 60°24' E 005°19'0 0.0
2019-Apr-22 18:29N 60°24' E 005°19'0 0.0
2019-Apr-22 18:00N 60°24' E 005°19'0 0.0
2019-Apr-22 17:30N 60°24' E 005°19'0 0.0
2019-Apr-22 17:01N 60°24' E 005°19'0 0.0
2019-Apr-22 16:28N 60°24' E 005°19'0 0.0
2019-Apr-22 15:58N 60°24' E 005°19'0 0.0
2019-Apr-22 15:29N 60°24' E 005°19'0 0.0
2019-Apr-22 14:59N 60°24' E 005°19'0 0.0
2019-Apr-22 14:29N 60°24' E 005°19'0 0.0
2019-Apr-22 14:00N 60°24' E 005°19'0 0.0
2019-Apr-22 13:30N 60°24' E 005°19'0 0.0
2019-Apr-22 13:00N 60°24' E 005°19'0 0.0
2019-Apr-22 12:30N 60°24' E 005°19'0 0.0
2019-Apr-22 11:58N 60°24' E 005°19'0 0.0
2019-Apr-22 11:28N 60°24' E 005°19'0 0.0
2019-Apr-22 10:59N 60°24' E 005°19'0 0.0
2019-Apr-22 10:29N 60°24' E 005°19'0 0.0
2019-Apr-22 09:59N 60°24' E 005°19'0 0.0
2019-Apr-22 09:30N 60°24' E 005°19'0 0.0
2019-Apr-22 09:00N 60°24' E 005°19'0 0.0
2019-Apr-22 08:30N 60°24' E 005°19'0 0.0
2019-Apr-22 08:01N 60°24' E 005°19'0 0.0
2019-Apr-22 07:28N 60°24' E 005°19'0 0.0
2019-Apr-22 06:58N 60°24' E 005°19'0 0.0
2019-Apr-22 06:29N 60°24' E 005°19'0 0.0
2019-Apr-22 05:59N 60°24' E 005°19'0 0.0
2019-Apr-22 05:29N 60°24' E 005°19'0 0.0
2019-Apr-22 04:57N 60°24' E 005°19'0 0.0
2019-Apr-22 04:30N 60°24' E 005°19'0 0.0
2019-Apr-22 04:00N 60°24' E 005°19'0 0.0
2019-Apr-22 03:31N 60°24' E 005°19'0 0.0
2019-Apr-22 02:58N 60°24' E 005°19'0 0.0
2019-Apr-22 02:28N 60°24' E 005°19'0 0.0
2019-Apr-22 01:59N 60°24' E 005°19'0 0.0
2019-Apr-22 01:29N 60°24' E 005°19'0 0.0
2019-Apr-22 00:59N 60°24' E 005°19'0 0.0
2019-Apr-22 00:27N 60°24' E 005°19'0 0.0
2019-Apr-22 00:00N 60°24' E 005°19'0 0.0
2019-Apr-21 23:30N 60°24' E 005°19'0 0.0
2019-Apr-21 22:58N 60°24' E 005°19'0 0.0
2019-Apr-21 22:28N 60°24' E 005°19'0 0.0
2019-Apr-21 21:58N 60°24' E 005°19'0 0.0
2019-Apr-21 21:29N 60°24' E 005°19'0 0.0
2019-Apr-21 20:59N 60°24' E 005°19'0 0.0
2019-Apr-21 20:29N 60°24' E 005°19'0 0.0
2019-Apr-21 20:00N 60°24' E 005°19'0 0.0
2019-Apr-21 19:30N 60°24' E 005°19'0 0.0
2019-Apr-21 19:00N 60°24' E 005°19'0 0.0
2019-Apr-21 18:28N 60°24' E 005°19'0 0.0
2019-Apr-21 17:58N 60°24' E 005°19'0 0.0
2019-Apr-21 17:28N 60°24' E 005°19'0 0.0
2019-Apr-21 16:59N 60°24' E 005°19'0 0.0
2019-Apr-21 16:29N 60°24' E 005°19'0 0.0
2019-Apr-21 15:59N 60°24' E 005°19'0 0.0
2019-Apr-21 15:30N 60°24' E 005°19'0 0.0
2019-Apr-21 15:00N 60°24' E 005°19'0 0.0
2019-Apr-21 14:30N 60°24' E 005°19'0 0.0
2019-Apr-21 13:58N 60°24' E 005°19'0 0.0
2019-Apr-21 13:28N 60°24' E 005°19'0 0.0
2019-Apr-21 12:58N 60°24' E 005°19'0 0.0
2019-Apr-21 12:29N 60°24' E 005°19'0 0.0
2019-Apr-21 11:59N 60°24' E 005°19'0 0.0
2019-Apr-21 11:29N 60°24' E 005°19'0 0.0
2019-Apr-21 11:00N 60°24' E 005°19'0 0.0
2019-Apr-21 10:30N 60°24' E 005°19'0 0.0
2019-Apr-21 10:00N 60°24' E 005°19'0 0.0
2019-Apr-21 09:28N 60°24' E 005°19'0 0.0
2019-Apr-21 08:58N 60°24' E 005°19'0 0.0
2019-Apr-21 08:28N 60°24' E 005°19'0 0.0
2019-Apr-21 07:59N 60°24' E 005°19'0 0.0
2019-Apr-21 07:29N 60°24' E 005°19'0 0.0
2019-Apr-21 06:59N 60°24' E 005°19'0 0.0
2019-Apr-21 06:30N 60°24' E 005°19'0 0.0
2019-Apr-21 06:00N 60°24' E 005°19'0 0.0
2019-Apr-21 05:30N 60°24' E 005°19'0 0.0
2019-Apr-21 04:58N 60°24' E 005°19'0 0.0
2019-Apr-21 04:28N 60°24' E 005°19'0 0.0
2019-Apr-21 03:58N 60°24' E 005°19'0 0.0
2019-Apr-21 03:29N 60°24' E 005°19'0 0.0
2019-Apr-21 02:59N 60°24' E 005°19'0 0.0
2019-Apr-21 02:29N 60°24' E 005°19'0 0.0
2019-Apr-21 02:00N 60°24' E 005°19'0 0.0
2019-Apr-21 01:30N 60°24' E 005°19'0 0.0
2019-Apr-21 01:00N 60°24' E 005°19'0 0.0
2019-Apr-21 00:28N 60°24' E 005°19'0 0.0
2019-Apr-20 23:58N 60°24' E 005°19'0 0.0
2019-Apr-20 23:28N 60°24' E 005°19'0 0.0
2019-Apr-20 22:59N 60°24' E 005°19'0 0.0
2019-Apr-20 22:29N 60°24' E 005°19'0 0.0
2019-Apr-20 21:59N 60°24' E 005°19'0 0.0
2019-Apr-20 21:30N 60°24' E 005°19'0 0.0
2019-Apr-20 21:00N 60°24' E 005°19'0 0.0
2019-Apr-20 20:30N 60°24' E 005°19'0 0.0
2019-Apr-20 19:58N 60°24' E 005°19'0 0.0
2019-Apr-20 19:28N 60°24' E 005°19'0 0.0
2019-Apr-20 18:58N 60°24' E 005°19'0 0.0
2019-Apr-20 18:29N 60°24' E 005°19'0 0.0
2019-Apr-20 17:59N 60°24' E 005°19'0 0.0
2019-Apr-20 17:29N 60°24' E 005°19'0 0.0
2019-Apr-20 17:00N 60°24' E 005°19'0 0.0
2019-Apr-20 16:30N 60°24' E 005°19'0 0.0
2019-Apr-20 16:00N 60°24' E 005°19'0 0.0
2019-Apr-20 15:28N 60°24' E 005°19'0 0.0
2019-Apr-20 14:58N 60°24' E 005°19'0 0.0
2019-Apr-20 14:28N 60°24' E 005°19'0 0.0
2019-Apr-20 13:59N 60°24' E 005°19'0 0.0
2019-Apr-20 13:29N 60°24' E 005°19'0 0.0
2019-Apr-20 12:59N 60°24' E 005°19'0 0.0
2019-Apr-20 12:30N 60°24' E 005°19'0 0.0
2019-Apr-20 12:00N 60°24' E 005°19'0 0.0
2019-Apr-20 11:30N 60°24' E 005°19'0 0.0
2019-Apr-20 10:58N 60°24' E 005°19'0 0.0
2019-Apr-20 10:28N 60°24' E 005°19'0 0.0
2019-Apr-20 09:58N 60°24' E 005°19'0 0.0
2019-Apr-20 09:29N 60°24' E 005°19'0 0.0
2019-Apr-20 08:59N 60°24' E 005°19'0 0.0
2019-Apr-20 08:29N 60°24' E 005°19'0 0.0
2019-Apr-20 08:00N 60°24' E 005°19'0 0.0
2019-Apr-20 07:30N 60°24' E 005°19'0 0.0
2019-Apr-20 07:00N 60°24' E 005°19'0 0.0
2019-Apr-20 06:28N 60°24' E 005°19'0 0.0
2019-Apr-20 05:58N 60°24' E 005°19'0 0.0
2019-Apr-20 05:28N 60°24' E 005°19'0 0.0
2019-Apr-20 04:59N 60°24' E 005°19'0 0.0
2019-Apr-20 04:29N 60°24' E 005°19'0 0.0
2019-Apr-20 03:59N 60°24' E 005°19'0 0.0
2019-Apr-20 03:30N 60°24' E 005°19'0 0.0
2019-Apr-20 03:00N 60°24' E 005°19'0 0.0
2019-Apr-20 02:31N 60°24' E 005°19'0 0.0
2019-Apr-20 01:58N 60°24' E 005°19'0 0.0
2019-Apr-20 01:28N 60°24' E 005°19'0 0.0
2019-Apr-20 00:59N 60°24' E 005°19'0 0.0
2019-Apr-20 00:29N 60°24' E 005°19'0 0.0
2019-Apr-19 23:59N 60°24' E 005°19'0 0.0
2019-Apr-19 23:29N 60°24' E 005°19'0 0.0
2019-Apr-19 23:00N 60°24' E 005°19'0 0.0
2019-Apr-19 22:27N 60°24' E 005°19'0 0.0
2019-Apr-19 22:00N 60°24' E 005°19'0 0.0
2019-Apr-19 21:28N 60°24' E 005°19'0 0.0
2019-Apr-19 20:58N 60°24' E 005°19'0 0.0
2019-Apr-19 20:28N 60°24' E 005°19'0 0.0
2019-Apr-19 19:59N 60°24' E 005°19'0 0.0
2019-Apr-19 19:29N 60°24' E 005°19'0 0.0
2019-Apr-19 18:59N 60°24' E 005°19'0 0.0
2019-Apr-19 18:30N 60°24' E 005°19'0 0.0
2019-Apr-19 18:00N 60°24' E 005°19'0 0.0
2019-Apr-19 17:30N 60°24' E 005°19'0 0.0
2019-Apr-19 16:58N 60°24' E 005°19'0 0.0
2019-Apr-19 16:28N 60°24' E 005°19'0 0.0
2019-Apr-19 15:59N 60°24' E 005°19'0 0.0
2019-Apr-19 15:29N 60°24' E 005°19'0 0.0
2019-Apr-19 14:59N 60°24' E 005°19'0 0.0
2019-Apr-19 14:30N 60°24' E 005°19'0 0.0
2019-Apr-19 14:00N 60°24' E 005°19'0 0.0
2019-Apr-19 13:30N 60°24' E 005°19'0 0.0
2019-Apr-19 13:01N 60°24' E 005°19'0 0.0
2019-Apr-19 12:28N 60°24' E 005°19'0 0.0
2019-Apr-19 11:58N 60°24' E 005°19'0 0.0
2019-Apr-19 11:29N 60°24' E 005°19'0 0.0
2019-Apr-19 10:59N 60°24' E 005°19'0 0.0
2019-Apr-19 10:29N 60°24' E 005°19'0 0.0
2019-Apr-19 10:00N 60°24' E 005°19'0 0.0
2019-Apr-19 09:30N 60°24' E 005°19'0 0.0
2019-Apr-19 09:00N 60°24' E 005°19'0 0.0
2019-Apr-19 08:31N 60°24' E 005°19'0 0.0
2019-Apr-19 07:58N 60°24' E 005°19'0 0.0
2019-Apr-19 07:28N 60°24' E 005°19'0 0.0
2019-Apr-19 06:59N 60°24' E 005°19'0 0.0
2019-Apr-19 06:29N 60°24' E 005°19'0 0.0
2019-Apr-19 05:59N 60°24' E 005°19'0 0.0
2019-Apr-19 05:27N 60°24' E 005°19'0 0.0
2019-Apr-19 05:00N 60°24' E 005°19'0 0.0
2019-Apr-19 04:30N 60°24' E 005°19'0 0.0
2019-Apr-19 04:01N 60°24' E 005°19'0 0.0
2019-Apr-19 03:28N 60°24' E 005°19'0 0.0
2019-Apr-19 02:58N 60°24' E 005°19'0 0.0
2019-Apr-19 02:29N 60°24' E 005°19'0 0.0
2019-Apr-19 01:59N 60°24' E 005°19'0 0.0
2019-Apr-19 01:29N 60°24' E 005°19'0 0.0
2019-Apr-19 01:00N 60°24' E 005°19'0 0.0
2019-Apr-19 00:30N 60°24' E 005°19'0 0.0
2019-Apr-19 00:00N 60°24' E 005°19'0 0.0
2019-Apr-18 23:28N 60°24' E 005°19'0 0.0
2019-Apr-18 22:58N 60°24' E 005°19'0 0.0
2019-Apr-18 22:28N 60°24' E 005°19'0 0.0
2019-Apr-18 21:59N 60°24' E 005°19'0 0.0
2019-Apr-18 21:29N 60°24' E 005°19'0 0.0
2019-Apr-18 20:59N 60°24' E 005°19'0 0.0
2019-Apr-18 20:30N 60°24' E 005°19'0 0.0
2019-Apr-18 20:00N 60°24' E 005°19'0 0.0
2019-Apr-18 19:30N 60°24' E 005°19'0 0.0
2019-Apr-18 18:58N 60°24' E 005°19'0 0.0
2019-Apr-18 18:28N 60°24' E 005°19'0 0.0
2019-Apr-18 17:58N 60°24' E 005°19'0 0.0
2019-Apr-18 17:29N 60°24' E 005°19'0 0.0
2019-Apr-18 16:59N 60°24' E 005°19'0 0.0
2019-Apr-18 16:29N 60°24' E 005°19'0 0.0
2019-Apr-18 15:57N 60°24' E 005°19'0 0.0
2019-Apr-18 15:30N 60°24' E 005°19'0 0.0
2019-Apr-18 15:00N 60°24' E 005°19'0 0.0
2019-Apr-18 14:28N 60°24' E 005°19'0 0.0
2019-Apr-18 13:58N 60°24' E 005°19'0 0.0
2019-Apr-18 13:28N 60°24' E 005°19'0 0.0
2019-Apr-18 12:59N 60°24' E 005°19'0 0.0
2019-Apr-18 12:29N 60°24' E 005°19'0 0.0
2019-Apr-18 11:59N 60°24' E 005°19'0 0.0
2019-Apr-18 11:30N 60°24' E 005°19'0 0.0
2019-Apr-18 11:00N 60°24' E 005°19'0 0.0
2019-Apr-18 10:30N 60°24' E 005°19'0 0.0
2019-Apr-18 09:58N 60°24' E 005°19'0 0.0
2019-Apr-18 09:28N 60°24' E 005°19'0 0.0
2019-Apr-18 08:58N 60°24' E 005°19'0 0.0
2019-Apr-18 08:29N 60°24' E 005°19'0 0.0
2019-Apr-18 07:59N 60°24' E 005°19'0 0.0
2019-Apr-18 07:29N 60°24' E 005°19'0 0.0
2019-Apr-18 07:00N 60°24' E 005°19'0 0.0
2019-Apr-18 06:30N 60°24' E 005°19'0 0.0
2019-Apr-18 06:00N 60°24' E 005°19'0 0.0
2019-Apr-18 05:28N 60°24' E 005°19'0 0.0
2019-Apr-18 04:58N 60°24' E 005°19'0 0.0
2019-Apr-18 04:28N 60°24' E 005°19'0 0.0
2019-Apr-18 03:59N 60°24' E 005°19'0 0.0
2019-Apr-18 03:29N 60°24' E 005°19'0 0.0
2019-Apr-18 02:59N 60°24' E 005°19'0 0.0
2019-Apr-18 02:30N 60°24' E 005°19'0 0.0
2019-Apr-18 02:00N 60°24' E 005°19'0 0.0
2019-Apr-18 01:30N 60°24' E 005°19'0 0.0
2019-Apr-18 00:58N 60°24' E 005°19'0 0.0
2019-Apr-18 00:28N 60°24' E 005°19'0 0.0
2019-Apr-17 23:58N 60°24' E 005°19'0 0.0
2019-Apr-17 23:29N 60°24' E 005°19'0 0.0
2019-Apr-17 22:59N 60°24' E 005°19'0 0.0
2019-Apr-17 22:29N 60°24' E 005°19'0 0.0
2019-Apr-17 22:00N 60°24' E 005°19'0 0.0
2019-Apr-17 21:30N 60°24' E 005°19'0 0.0
2019-Apr-17 21:00N 60°24' E 005°19'0 0.0
2019-Apr-17 20:28N 60°24' E 005°19'0 0.0
2019-Apr-17 19:58N 60°24' E 005°19'0 0.0
2019-Apr-17 19:28N 60°24' E 005°19'0 0.0
2019-Apr-17 18:59N 60°24' E 005°19'0 0.0
2019-Apr-17 18:29N 60°24' E 005°19'0 0.0
2019-Apr-17 17:59N 60°24' E 005°19'0 0.0
2019-Apr-17 17:30N 60°24' E 005°19'0 0.0
2019-Apr-17 17:00N 60°24' E 005°19'0 0.0
2019-Apr-17 16:30N 60°24' E 005°19'0 0.0
2019-Apr-17 15:58N 60°24' E 005°19'0 0.0
2019-Apr-17 15:28N 60°24' E 005°19'0 0.0
2019-Apr-17 14:58N 60°24' E 005°19'0 0.0
2019-Apr-17 14:29N 60°24' E 005°19'0 0.0
2019-Apr-17 13:59N 60°24' E 005°19'0 0.0
2019-Apr-17 13:29N 60°24' E 005°19'0 0.0
2019-Apr-17 13:00N 60°24' E 005°19'0 0.0
2019-Apr-17 12:30N 60°24' E 005°19'0 0.0
2019-Apr-17 12:00N 60°24' E 005°19'0 0.0
2019-Apr-17 11:28N 60°24' E 005°19'0 0.0
2019-Apr-17 10:58N 60°24' E 005°19'0 0.0
2019-Apr-17 10:28N 60°24' E 005°19'0 0.0
2019-Apr-17 09:59N 60°24' E 005°19'0 0.0
2019-Apr-17 09:29N 60°24' E 005°19'0 0.0
2019-Apr-17 08:59N 60°24' E 005°19'0 0.0
2019-Apr-17 08:30N 60°24' E 005°19'0 0.0
2019-Apr-17 08:00N 60°24' E 005°19'0 0.0
2019-Apr-17 07:30N 60°24' E 005°19'0 0.0
2019-Apr-17 06:58N 60°24' E 005°19'0 0.0
2019-Apr-17 06:28N 60°24' E 005°19'0 0.0
2019-Apr-17 05:58N 60°24' E 005°19'0 0.0
2019-Apr-17 05:29N 60°24' E 005°19'0 0.0
2019-Apr-17 04:59N 60°24' E 005°19'0 0.0
2019-Apr-17 04:29N 60°24' E 005°19'0 0.0
2019-Apr-17 04:00N 60°24' E 005°19'0 0.0
2019-Apr-17 03:30N 60°24' E 005°19'0 0.0
2019-Apr-17 03:00N 60°24' E 005°19'0 0.0
2019-Apr-17 02:28N 60°24' E 005°19'0 0.0
2019-Apr-17 01:58N 60°24' E 005°19'0 0.0
2019-Apr-17 01:28N 60°24' E 005°19'0 0.0
2019-Apr-17 00:59N 60°24' E 005°19'0 0.0
2019-Apr-17 00:29N 60°24' E 005°19'0 0.0
2019-Apr-16 23:59N 60°24' E 005°19'0 0.0
2019-Apr-16 23:30N 60°24' E 005°19'0 0.0
2019-Apr-16 23:00N 60°24' E 005°19'0 0.0
2019-Apr-16 22:30N 60°24' E 005°19'0 0.0
2019-Apr-16 21:58N 60°24' E 005°19'0 0.0
2019-Apr-16 21:28N 60°24' E 005°19'0 0.0
2019-Apr-16 20:58N 60°24' E 005°19'0 0.0
2019-Apr-16 20:29N 60°24' E 005°19'0 0.0
2019-Apr-16 19:59N 60°24' E 005°19'0 0.0
2019-Apr-16 19:29N 60°24' E 005°19'0 0.0
2019-Apr-16 19:00N 60°24' E 005°19'0 0.0
2019-Apr-16 18:30N 60°24' E 005°19'0 0.0
2019-Apr-16 18:00N 60°24' E 005°19'0 0.0
2019-Apr-16 17:28N 60°24' E 005°19'0 0.0
2019-Apr-16 16:58N 60°24' E 005°19'0 0.0
2019-Apr-16 16:28N 60°24' E 005°19'0 0.0
2019-Apr-16 15:59N 60°24' E 005°19'0 0.0
2019-Apr-16 15:29N 60°24' E 005°19'0 0.0
2019-Apr-16 14:59N 60°24' E 005°19'0 0.0
2019-Apr-16 14:30N 60°24' E 005°19'0 0.0
2019-Apr-16 14:00N 60°24' E 005°19'0 0.0
2019-Apr-16 13:30N 60°24' E 005°19'0 0.0
2019-Apr-16 12:58N 60°24' E 005°19'0 0.0
2019-Apr-16 12:28N 60°24' E 005°19'0 0.0
2019-Apr-16 11:58N 60°24' E 005°19'0 0.0
2019-Apr-16 11:29N 60°24' E 005°19'0 0.0
2019-Apr-16 10:59N 60°24' E 005°19'0 0.0
2019-Apr-16 10:26N 60°24' E 005°19'0 0.0
2019-Apr-16 10:00N 60°24' E 005°19'0 0.0
2019-Apr-16 09:30N 60°24' E 005°19'0 0.0
2019-Apr-16 09:00N 60°24' E 005°19'0 0.0
2019-Apr-16 08:28N 60°24' E 005°19'0 0.0
2019-Apr-16 07:58N 60°24' E 005°19'0 0.0
2019-Apr-16 07:28N 60°24' E 005°19'0 0.0
2019-Apr-16 06:59N 60°24' E 005°19'0 0.0
2019-Apr-16 06:29N 60°24' E 005°19'0 0.0
2019-Apr-16 05:59N 60°24' E 005°19'0 0.0
2019-Apr-16 05:30N 60°24' E 005°19'0 0.0
2019-Apr-16 05:00N 60°24' E 005°19'0 0.0
2019-Apr-16 04:30N 60°24' E 005°19'0 0.0
2019-Apr-16 03:58N 60°24' E 005°19'  

Dump ship's entire track history